Ana Sayfa
METAR-TAF:

METAR-TAF

Havaalanları :

Selebi-Phikwe, Botsvana

Enlem: 22-03-19S, Boylam: 027-49-13E, yükseklik: 892 m

Güncel hava durumu gözlemi

Rapor saat 18:00 UTC de 5 saat ve 55 dakika önce yapıldı.
Rüzgar değişken yönden 1 kt
Sıcaklık 26°C
Nem 61%
Basınç 1015 hPa
Görüş mesafesi 10 km veya daha fazla
1500 m altında bulut yok ve kümülonimbus yok

METAR: FBSP 271800Z VRB01KT CAVOK 26/18 Q1015

Saat: 01:55 (23:55 UTC)

Tahmin

Rapor saat 12:00 UTC de 11 saat ve 55 dakika önce yapıldı.
Ayın 27'si saat 15 UTC'den ayın 27'si saat 24 UTC'ye kadar geçerli Tahmin
Rüzgar kuzeydan kt
Görüş mesafesi 10 km veya daha fazla
1500 m altında bulut yok ve kümülonimbus yok

TAF: FBSP 271200Z 2715/2724 00000KT CAVOK

4.000'den fazla havaalanı için hava durumu gözlemleri ve tahminleri (METAR ve TAF raporları).

Kullanılabilir istasyonlar harita üzerinde sarı ve kırmızı noktalarla gösterilir.

İstasyonun adını görmek için fareyi noktanın üzerinde gezdirin.

Sonrasında hava gözlem ve tahminlerini görmek için tıklayın.

Haritayı değiştirmek için: yaklaştırmak için siyah artı işaretli yeşil düğmeye ve uzaklaştırmak için de eksi işaretli düğmeye hızla tıklayın; bitişik haritalar için yeşil okları kullanın.


METAR-TAF: